CheckWX is a tool to help pilots better visualize weather data.  It is not intended as a substitute for an official pre-flight weather briefing.

14:08:34 UTC

KMFD METAR
Mansfield Lahm Regional Airport
Mansfield, Ohio, USA
Current

17 mins ago

KMFD 261352Z 29014G20KT 3SM RA BR OVC004 10/09 A2946 RMK AO2 SLP973 P0009 T01000094
Observed
Apr-26 @ 13:52 UTC
Wind
  • 290° at 14 KTS
  • Gusting to 20 KTS
Visibility
3 SM
Flight Rules
LIFR
Conditions
Rain, Mist
Cloud Levels
  • Overcast at 400' AGL
Temperature
10°C / 50°F
Dewpoint
C / 48°F
Humidity
94%
Altimeter
29.46" Hg
Pressure
997.62 hPa
Current Rain
0.09"
Previous

1 hour ago

KMFD 261252Z 30010KT 4SM -RA BR OVC004 10/10 A2943 RMK AO2 RAB27 SLP965 P0002 T01000100
Observed
Apr-26 @ 12:52 UTC
Wind
  • 300° at 10 KTS
Visibility
4 SM
Flight Rules
LIFR
Conditions
Light Rain, Mist
Cloud Levels
  • Overcast at 400' AGL
Temperature
10°C / 50°F
Dewpoint
10°C / 50°F
Humidity
100%
Altimeter
29.43" Hg
Pressure
996.62 hPa
Current Rain
0.02"
Previous

2 hours ago

KMFD 261207Z 30010G16KT 6SM BR OVC003 11/11 A2943 RMK AO2 T01060106
Observed
Apr-26 @ 12:07 UTC
Wind
  • 300° at 10 KTS
  • Gusting to 16 KTS
Visibility
6 SM
Flight Rules
LIFR
Conditions
Mist
Cloud Levels
  • Overcast at 300' AGL
Temperature
11°C / 52°F
Dewpoint
11°C / 52°F
Humidity
100%
Altimeter
29.43" Hg
Pressure
996.62 hPa